Time;durP1;ratioP1;P1;durP2;ratioP2;P2;SDS_P1;SDS_P2;PMS_P1;PMS_P2;Temp;Humidity;BMP_temperature;BMP_pressure;BME280_temperature;BME280_humidity;BME280_pressure;Samples;Min_cycle;Max_cycle;Signal;HPM_P1;HPM_P2
2023/05/30 00:01:18;;;;;;;1.17;0.40;;;13.00;99.90;;;;;;7390668;19;19927;-75
2023/05/30 00:03:47;;;;;;;1.60;0.60;;;12.80;99.90;;;;;;7389224;19;19989;-75
2023/05/30 00:06:17;;;;;;;1.55;0.60;;;12.90;99.90;;;;;;7390489;19;19978;-75
2023/05/30 00:08:46;;;;;;;1.83;0.52;;;12.70;99.90;;;;;;7389447;19;19926;-75
2023/05/30 00:11:18;;;;;;;1.05;0.50;;;13.00;99.90;;;;;;7392685;19;19929;-75
2023/05/30 00:13:50;;;;;;;1.50;0.50;;;12.80;99.90;;;;;;7388346;19;20312;-75
2023/05/30 00:16:19;;;;;;;1.65;0.82;;;12.80;99.90;;;;;;7393080;19;20108;-76
2023/05/30 00:18:48;;;;;;;2.15;0.60;;;12.50;99.90;;;;;;7391175;19;19926;-74
2023/05/30 00:21:17;;;;;;;0.93;0.50;;;12.50;99.90;;;;;;7384037;19;20277;-75
2023/05/30 00:23:47;;;;;;;2.65;0.47;;;12.50;99.90;;;;;;7382447;19;19982;-75
2023/05/30 00:26:17;;;;;;;2.08;0.60;;;12.60;99.90;;;;;;7389704;19;19958;-75
2023/05/30 00:28:46;;;;;;;2.50;0.60;;;12.60;99.90;;;;;;7389969;19;19986;-74
2023/05/30 00:31:18;;;;;;;2.55;0.60;;;12.50;99.90;;;;;;7392275;19;20315;-75
2023/05/30 00:33:47;;;;;;;1.35;0.65;;;12.50;99.90;;;;;;7395582;19;19923;-75
2023/05/30 00:36:16;;;;;;;2.17;0.77;;;12.50;99.90;;;;;;7402001;19;19990;-75
2023/05/30 00:38:45;;;;;;;1.17;0.40;;;12.40;99.90;;;;;;7398740;19;20291;-74
2023/05/30 00:41:14;;;;;;;0.95;0.50;;;12.50;99.90;;;;;;7402397;19;20338;-75
2023/05/30 00:43:43;;;;;;;1.25;0.43;;;12.30;99.90;;;;;;7402506;19;19923;-74
2023/05/30 00:46:12;;;;;;;1.13;0.30;;;12.20;99.90;;;;;;7399417;19;19914;-75
2023/05/30 00:48:46;;;;;;;2.85;0.65;;;12.50;99.90;;;;;;7401769;19;19922;-75
2023/05/30 00:51:15;;;;;;;2.53;0.50;;;12.30;99.90;;;;;;7401891;19;19947;-75
2023/05/30 00:53:45;;;;;;;1.92;0.80;;;12.40;99.90;;;;;;7401165;19;19922;-75
2023/05/30 00:56:15;;;;;;;0.85;0.50;;;12.50;99.90;;;;;;7402468;19;19948;-76
2023/05/30 00:58:45;;;;;;;2.30;0.60;;;12.50;99.90;;;;;;7392847;19;20015;-75
2023/05/30 01:01:14;;;;;;;3.40;0.88;;;12.50;99.90;;;;;;7398274;19;20611;-74
2023/05/30 01:03:47;;;;;;;1.38;0.60;;;12.30;99.90;;;;;;7400833;19;19929;-75
2023/05/30 01:06:17;;;;;;;1.63;0.73;;;12.40;99.90;;;;;;7403143;19;19922;-75
2023/05/30 01:08:46;;;;;;;0.93;0.60;;;12.30;99.90;;;;;;7400592;19;19918;-75
2023/05/30 01:11:31;;;;;;;2.63;0.85;;;12.50;99.90;;;;;;7397480;19;19923;-75
2023/05/30 01:14:09;;;;;;;4.80;1.10;;;12.50;99.90;;;;;;7398500;19;20187;-75
2023/05/30 01:16:44;;;;;;;1.90;0.68;;;12.40;99.90;;;;;;7402190;19;19923;-74
2023/05/30 01:19:45;;;;;;;0.60;0.50;;;12.50;99.90;;;;;;7396937;19;20408;-75
2023/05/30 01:22:51;;;;;;;1.73;0.50;;;12.50;99.90;;;;;;7401299;19;19915;-75
2023/05/30 01:25:52;;;;;;;1.67;0.77;;;12.40;99.90;;;;;;7403398;19;20002;-76
2023/05/30 01:28:28;;;;;;;1.65;0.40;;;12.60;99.90;;;;;;7402046;19;19923;-75
2023/05/30 01:30:59;;;;;;;2.45;0.60;;;12.40;99.90;;;;;;7401940;19;20435;-75
2023/05/30 01:33:30;;;;;;;0.90;0.52;;;12.30;99.90;;;;;;7404353;19;19914;-74
2023/05/30 01:35:59;;;;;;;1.15;0.43;;;12.30;99.90;;;;;;7403826;19;19922;-75
2023/05/30 01:38:28;;;;;;;1.77;0.60;;;12.20;99.90;;;;;;7404022;19;19978;-75
2023/05/30 01:40:59;;;;;;;2.45;0.70;;;12.30;99.90;;;;;;7396307;19;19928;-75
2023/05/30 01:43:42;;;;;;;2.50;0.75;;;12.40;99.90;;;;;;7393681;19;19935;-74
2023/05/30 01:46:20;;;;;;;1.48;0.60;;;12.30;99.90;;;;;;7402155;19;19922;-74
2023/05/30 01:48:57;;;;;;;1.80;0.65;;;12.30;99.90;;;;;;7402068;19;20298;-74
2023/05/30 01:51:31;;;;;;;0.98;0.45;;;12.40;99.90;;;;;;7402756;19;19933;-74
2023/05/30 01:54:04;;;;;;;1.38;0.52;;;12.30;99.90;;;;;;7401790;19;20245;-75
2023/05/30 01:56:35;;;;;;;1.95;0.50;;;12.30;99.90;;;;;;7402952;19;20471;-74
2023/05/30 01:59:10;;;;;;;1.77;0.40;;;12.20;99.90;;;;;;7402373;19;19939;-74
2023/05/30 02:01:41;;;;;;;3.47;0.90;;;12.20;99.90;;;;;;7400990;19;20021;-74
2023/05/30 02:04:10;;;;;;;1.77;0.50;;;12.10;99.90;;;;;;7399877;19;19918;-75
2023/05/30 02:06:39;;;;;;;1.80;0.63;;;12.00;99.90;;;;;;7402086;19;20052;-75
2023/05/30 02:09:08;;;;;;;2.63;0.70;;;12.00;99.90;;;;;;7401756;19;19918;-74
2023/05/30 02:11:37;;;;;;;1.20;0.40;;;12.10;99.90;;;;;;7402848;19;19927;-75
2023/05/30 02:14:10;;;;;;;3.00;0.50;;;12.00;99.90;;;;;;7402981;19;20002;-75
2023/05/30 02:16:39;;;;;;;1.92;0.50;;;12.00;99.90;;;;;;7402121;19;20337;-75
2023/05/30 02:19:09;;;;;;;2.08;0.40;;;11.90;99.90;;;;;;7400695;19;19920;-75
2023/05/30 02:21:37;;;;;;;1.02;0.57;;;12.10;99.90;;;;;;7401437;19;19922;-75
2023/05/30 02:24:07;;;;;;;3.55;0.65;;;11.90;99.90;;;;;;7399491;19;19955;-75
2023/05/30 02:26:38;;;;;;;0.85;0.50;;;12.20;99.90;;;;;;7399972;19;20313;-75
2023/05/30 02:29:10;;;;;;;1.63;0.50;;;11.90;99.90;;;;;;7400388;19;19926;-75
2023/05/30 02:31:39;;;;;;;2.03;0.63;;;12.00;99.90;;;;;;7398995;19;19918;-75
2023/05/30 02:34:07;;;;;;;0.95;0.52;;;12.00;99.90;;;;;;7400287;19;19954;-75
2023/05/30 02:36:38;;;;;;;1.85;0.63;;;12.10;99.90;;;;;;7399188;19;19991;-74
2023/05/30 02:39:09;;;;;;;1.63;0.50;;;12.00;99.90;;;;;;7400187;19;19932;-75
2023/05/30 02:41:39;;;;;;;1.60;0.50;;;12.00;99.90;;;;;;7399207;19;20017;-75
2023/05/30 02:44:11;;;;;;;2.15;0.60;;;11.90;99.90;;;;;;7401976;19;20296;-75
2023/05/30 02:46:41;;;;;;;1.25;0.45;;;12.20;99.90;;;;;;7402063;19;19926;-75
2023/05/30 02:49:11;;;;;;;0.93;0.47;;;12.10;99.90;;;;;;7401126;19;19977;-75
2023/05/30 02:51:40;;;;;;;2.42;0.50;;;12.00;99.90;;;;;;7397722;19;19928;-76
2023/05/30 02:54:09;;;;;;;2.63;0.60;;;12.00;99.90;;;;;;7401097;19;19942;-75
2023/05/30 02:56:38;;;;;;;1.80;0.63;;;12.00;99.90;;;;;;7399748;19;19936;-75
2023/05/30 02:59:09;;;;;;;0.80;0.50;;;12.00;99.90;;;;;;7401115;19;20233;-75
2023/05/30 03:01:38;;;;;;;1.35;0.60;;;11.90;99.90;;;;;;7402383;19;20006;-75
2023/05/30 03:04:07;;;;;;;1.20;0.60;;;11.90;99.90;;;;;;7399533;19;19982;-75
2023/05/30 03:06:37;;;;;;;1.48;0.47;;;12.30;99.90;;;;;;7401094;19;20359;-75
2023/05/30 03:09:06;;;;;;;2.25;0.55;;;12.00;99.90;;;;;;7399908;19;19939;-75
2023/05/30 03:11:35;;;;;;;1.27;0.70;;;12.00;99.90;;;;;;7400357;19;20285;-75
2023/05/30 03:14:04;;;;;;;1.00;0.47;;;12.00;99.90;;;;;;7400896;19;19933;-75
2023/05/30 03:16:39;;;;;;;1.10;0.50;;;12.10;99.90;;;;;;7399507;19;20559;-75
2023/05/30 03:19:08;;;;;;;1.50;0.50;;;12.10;99.90;;;;;;7401055;19;19919;-74
2023/05/30 03:21:39;;;;;;;2.05;0.70;;;12.10;99.90;;;;;;7398048;19;19918;-75
2023/05/30 03:24:08;;;;;;;2.88;0.55;;;12.10;99.90;;;;;;7400922;19;19921;-75
2023/05/30 03:26:37;;;;;;;1.15;0.50;;;12.00;99.90;;;;;;7398171;19;19993;-75
2023/05/30 03:29:07;;;;;;;1.77;0.63;;;12.00;99.90;;;;;;7399182;19;19943;-75
2023/05/30 03:31:38;;;;;;;2.45;0.50;;;12.00;99.90;;;;;;7399502;19;19925;-75
2023/05/30 03:34:07;;;;;;;3.17;0.65;;;12.00;99.90;;;;;;7399711;19;20327;-75
2023/05/30 03:36:36;;;;;;;2.47;0.70;;;12.10;99.90;;;;;;7400520;19;20280;-75
2023/05/30 03:39:06;;;;;;;1.65;0.47;;;12.00;99.90;;;;;;7399902;19;19978;-75
2023/05/30 03:41:35;;;;;;;2.25;0.70;;;12.10;99.90;;;;;;7398695;19;19925;-75
2023/05/30 03:44:04;;;;;;;2.92;0.60;;;12.10;99.90;;;;;;7397759;19;19978;-76
2023/05/30 03:46:33;;;;;;;1.98;1.02;;;12.00;99.90;;;;;;7400409;19;20300;-76
2023/05/30 03:49:05;;;;;;;1.55;0.60;;;12.00;99.90;;;;;;7398850;19;19961;-76
2023/05/30 03:51:34;;;;;;;1.25;0.50;;;12.00;99.90;;;;;;7400164;19;19918;-76
2023/05/30 03:54:03;;;;;;;1.17;0.40;;;12.10;99.90;;;;;;7398446;19;19981;-76
2023/05/30 03:56:32;;;;;;;1.42;0.90;;;12.10;99.90;;;;;;7399344;19;20010;-76
2023/05/30 03:59:01;;;;;;;1.92;0.55;;;12.20;99.90;;;;;;7399260;19;19927;-75
2023/05/30 04:01:30;;;;;;;0.90;0.40;;;12.10;99.90;;;;;;7398866;19;19925;-76
2023/05/30 04:03:59;;;;;;;1.60;0.60;;;12.30;99.90;;;;;;7401732;19;19927;-76
2023/05/30 04:06:31;;;;;;;1.00;0.50;;;12.20;99.90;;;;;;7405853;19;19930;-76
2023/05/30 04:09:02;;;;;;;3.22;0.57;;;12.20;99.90;;;;;;7405651;19;19946;-76
2023/05/30 04:11:32;;;;;;;3.13;0.90;;;12.10;99.90;;;;;;7404938;19;19923;-76
2023/05/30 04:14:01;;;;;;;1.92;0.95;;;12.10;99.90;;;;;;7406317;19;20267;-75
2023/05/30 04:16:30;;;;;;;1.45;0.40;;;12.10;99.90;;;;;;7404871;19;19925;-75
2023/05/30 04:18:59;;;;;;;1.35;0.50;;;12.00;99.90;;;;;;7404345;19;20348;-76
2023/05/30 04:21:31;;;;;;;2.00;0.50;;;12.10;99.90;;;;;;7407046;19;19922;-76
2023/05/30 04:24:00;;;;;;;1.00;0.43;;;12.20;99.90;;;;;;7407126;19;19925;-75
2023/05/30 04:26:31;;;;;;;1.02;0.55;;;12.10;99.90;;;;;;7404271;19;20365;-75
2023/05/30 04:29:00;;;;;;;1.77;0.57;;;12.10;99.90;;;;;;7401525;19;20374;-75
2023/05/30 04:31:29;;;;;;;1.73;0.63;;;12.20;99.90;;;;;;7402534;19;19942;-77
2023/05/30 04:33:59;;;;;;;1.85;0.70;;;12.10;99.90;;;;;;7402603;19;19918;-76
2023/05/30 04:36:36;;;;;;;1.30;0.60;;;12.20;99.90;;;;;;7398745;19;19919;-76
2023/05/30 04:39:05;;;;;;;0.73;0.40;;;12.20;99.90;;;;;;7401641;19;20005;-76
2023/05/30 04:41:34;;;;;;;2.15;0.60;;;12.20;99.90;;;;;;7404434;19;20300;-76
2023/05/30 04:44:03;;;;;;;1.10;0.43;;;12.10;99.90;;;;;;7398038;19;19982;-75
2023/05/30 04:46:33;;;;;;;0.90;0.50;;;12.20;99.90;;;;;;7398314;19;19923;-76
2023/05/30 04:49:03;;;;;;;3.55;0.57;;;12.00;99.90;;;;;;7399311;19;19943;-76
2023/05/30 04:51:37;;;;;;;2.92;0.60;;;12.00;99.90;;;;;;7396203;19;19943;-76
2023/05/30 04:54:07;;;;;;;1.67;0.60;;;12.00;99.90;;;;;;7403819;19;19923;-75
2023/05/30 04:56:36;;;;;;;2.97;0.60;;;12.20;99.90;;;;;;7401347;19;19919;-76
2023/05/30 04:59:05;;;;;;;1.95;0.47;;;12.20;99.90;;;;;;7401323;19;19943;-76
2023/05/30 05:01:35;;;;;;;1.77;0.80;;;12.20;99.90;;;;;;7399382;19;20372;-75
2023/05/30 05:04:04;;;;;;;1.92;0.57;;;12.20;99.90;;;;;;7399546;19;19933;-75
2023/05/30 05:06:36;;;;;;;0.70;0.47;;;12.20;99.90;;;;;;7401397;19;19930;-75
2023/05/30 05:09:05;;;;;;;0.98;0.43;;;12.30;99.90;;;;;;7403546;19;19946;-76
2023/05/30 05:11:34;;;;;;;3.55;0.90;;;12.20;99.90;;;;;;7404470;19;19922;-76
2023/05/30 05:14:04;;;;;;;1.70;0.60;;;12.20;99.90;;;;;;7395705;19;19918;-76
2023/05/30 05:16:33;;;;;;;3.95;0.50;;;12.20;99.90;;;;;;7402883;19;19919;-75
2023/05/30 05:19:02;;;;;;;1.38;0.55;;;12.30;99.90;;;;;;7404190;19;19923;-76
2023/05/30 05:21:31;;;;;;;0.50;0.30;;;12.30;99.90;;;;;;7403324;19;20385;-75
2023/05/30 05:24:03;;;;;;;1.77;0.60;;;12.20;99.90;;;;;;7401451;19;19982;-77
2023/05/30 05:26:32;;;;;;;2.10;0.52;;;12.20;99.90;;;;;;7402626;19;20376;-76
2023/05/30 05:29:01;;;;;;;1.65;0.50;;;12.40;99.90;;;;;;7402278;19;19922;-76
2023/05/30 05:31:32;;;;;;;1.73;0.77;;;12.10;99.90;;;;;;7402817;19;19922;-76
2023/05/30 05:34:01;;;;;;;0.90;0.47;;;12.30;99.90;;;;;;7400503;19;19918;-76
2023/05/30 05:36:31;;;;;;;0.60;0.50;;;12.30;99.90;;;;;;7404319;19;19926;-75
2023/05/30 05:39:02;;;;;;;1.75;0.32;;;12.40;99.90;;;;;;7405014;19;19922;-75
2023/05/30 05:41:31;;;;;;;1.25;0.40;;;12.30;99.90;;;;;;7395819;19;20233;-75
2023/05/30 05:44:00;;;;;;;2.05;0.40;;;12.30;99.90;;;;;;7382493;19;20054;-77
2023/05/30 05:46:29;;;;;;;1.38;0.50;;;12.30;99.90;;;;;;7390403;19;19956;-75
2023/05/30 05:48:58;;;;;;;1.55;0.47;;;12.20;99.90;;;;;;7388066;19;19922;-75
2023/05/30 05:51:28;;;;;;;1.92;0.70;;;12.10;99.90;;;;;;7384615;19;19919;-75
2023/05/30 05:53:57;;;;;;;1.60;0.40;;;12.10;99.90;;;;;;7384679;19;19934;-75
2023/05/30 05:56:29;;;;;;;1.00;0.38;;;12.30;99.90;;;;;;7392860;19;19952;-75
2023/05/30 05:58:58;;;;;;;2.75;0.35;;;12.10;99.90;;;;;;7399720;19;19925;-75
2023/05/30 06:01:27;;;;;;;1.45;0.50;;;12.30;99.90;;;;;;7398706;19;19918;-75
2023/05/30 06:03:56;;;;;;;0.47;0.40;;;12.00;99.90;;;;;;7393409;19;20380;-76
2023/05/30 06:06:25;;;;;;;2.33;0.70;;;12.20;99.90;;;;;;7402344;19;19919;-74
2023/05/30 06:08:54;;;;;;;0.43;0.40;;;12.30;99.90;;;;;;7401399;19;19938;-74
2023/05/30 06:11:22;;;;;;;2.05;0.35;;;12.40;99.90;;;;;;7399048;19;19986;-75
2023/05/30 06:13:54;;;;;;;4.60;0.70;;;12.30;99.90;;;;;;7398522;19;19918;-74
2023/05/30 06:16:23;;;;;;;1.15;0.50;;;12.40;99.90;;;;;;7400875;19;19925;-74
2023/05/30 06:18:52;;;;;;;2.83;0.70;;;12.20;99.90;;;;;;7398580;19;19961;-76
2023/05/30 06:21:22;;;;;;;2.25;0.50;;;12.30;99.90;;;;;;7372098;19;19957;-73
2023/05/30 06:23:51;;;;;;;1.33;0.60;;;12.20;99.90;;;;;;7399661;19;19922;-74
2023/05/30 06:26:20;;;;;;;1.40;0.30;;;12.30;99.90;;;;;;7400344;19;19943;-74
2023/05/30 06:28:51;;;;;;;0.90;0.40;;;12.30;99.90;;;;;;7402071;19;19926;-74
2023/05/30 06:31:23;;;;;;;1.27;0.82;;;12.40;99.90;;;;;;7400853;19;19923;-74
2023/05/30 06:33:52;;;;;;;1.08;0.40;;;12.40;99.90;;;;;;7400362;19;20258;-74
2023/05/30 06:36:21;;;;;;;0.43;0.30;;;12.40;99.90;;;;;;7401398;19;19939;-74
2023/05/30 06:38:51;;;;;;;1.02;0.38;;;12.50;99.90;;;;;;7397039;19;19922;-74
2023/05/30 06:41:20;;;;;;;0.90;0.40;;;12.40;99.90;;;;;;7402933;19;19926;-74
2023/05/30 06:43:49;;;;;;;1.52;0.43;;;12.60;99.90;;;;;;7400212;19;19933;-74
2023/05/30 06:46:18;;;;;;;1.08;0.40;;;12.60;99.90;;;;;;7401748;19;19927;-74
2023/05/30 06:48:50;;;;;;;1.95;0.50;;;12.70;99.90;;;;;;7400473;19;19974;-74
2023/05/30 06:51:19;;;;;;;0.52;0.40;;;12.70;99.90;;;;;;7399765;19;19942;-74
2023/05/30 06:53:48;;;;;;;0.60;0.47;;;12.70;99.90;;;;;;7401092;19;19914;-75
2023/05/30 06:56:17;;;;;;;1.55;0.40;;;12.80;99.90;;;;;;7403094;19;19918;-74
2023/05/30 06:58:46;;;;;;;0.82;0.30;;;12.70;99.90;;;;;;7400765;19;19929;-74
2023/05/30 07:01:15;;;;;;;0.65;0.45;;;12.80;99.90;;;;;;7400815;19;19923;-74
2023/05/30 07:03:45;;;;;;;3.38;2.25;;;12.80;99.90;;;;;;7398329;19;19922;-74
2023/05/30 07:06:17;;;;;;;0.85;0.30;;;12.90;99.90;;;;;;7400879;19;20288;-74
2023/05/30 07:08:46;;;;;;;0.30;0.20;;;12.80;99.90;;;;;;7399311;19;19930;-74
2023/05/30 07:11:15;;;;;;;2.47;0.45;;;12.80;99.90;;;;;;7400717;19;19974;-74
2023/05/30 07:13:44;;;;;;;0.30;0.20;;;12.90;99.90;;;;;;7400014;19;19982;-74
2023/05/30 07:16:13;;;;;;;1.67;0.32;;;12.80;99.90;;;;;;7401987;19;20325;-75
2023/05/30 07:18:42;;;;;;;2.03;0.50;;;12.70;99.90;;;;;;7401027;19;19914;-73
2023/05/30 07:21:11;;;;;;;0.85;0.40;;;12.80;99.90;;;;;;7401466;19;20349;-73
2023/05/30 07:23:43;;;;;;;0.38;0.30;;;12.80;99.90;;;;;;7400768;19;19982;-73
2023/05/30 07:26:12;;;;;;;0.40;0.35;;;12.90;99.90;;;;;;7401629;19;19918;-74
2023/05/30 07:28:41;;;;;;;0.40;0.20;;;12.80;99.90;;;;;;7401286;19;19926;-74
2023/05/30 07:31:10;;;;;;;0.10;0.10;;;12.80;99.90;;;;;;7400895;19;19990;-74
2023/05/30 07:33:39;;;;;;;0.22;0.20;;;13.10;99.90;;;;;;7401499;19;20272;-74
2023/05/30 07:36:08;;;;;;;0.32;0.30;;;13.20;99.90;;;;;;7401696;19;19930;-74
2023/05/30 07:38:38;;;;;;;0.47;0.20;;;11.80;99.90;;;;;;7404825;19;20348;-74
2023/05/30 07:41:09;;;;;;;0.65;0.30;;;13.20;99.90;;;;;;7405556;19;19923;-78
2023/05/30 07:43:38;;;;;;;0.75;0.20;;;13.20;99.90;;;;;;7406435;19;19934;-73
2023/05/30 07:46:07;;;;;;;0.73;0.50;;;13.30;99.90;;;;;;7407066;19;20441;-73
2023/05/30 07:48:37;;;;;;;1.55;0.20;;;13.20;99.90;;;;;;7408156;19;19919;-74
2023/05/30 07:51:06;;;;;;;0.50;0.30;;;13.30;99.90;;;;;;7406711;19;20357;-74
2023/05/30 07:53:36;;;;;;;0.70;0.40;;;13.40;99.90;;;;;;7406232;19;20344;-75
2023/05/30 07:56:05;;;;;;;0.40;0.13;;;13.40;99.90;;;;;;7407215;19;21195;-74
2023/05/30 07:58:37;;;;;;;0.30;0.28;;;13.50;99.90;;;;;;7408001;19;19982;-75
2023/05/30 08:01:07;;;;;;;0.20;0.13;;;13.50;99.90;;;;;;7408229;19;20342;-74
2023/05/30 08:03:36;;;;;;;0.10;0.10;;;13.50;99.90;;;;;;7407141;19;19974;-74
2023/05/30 08:06:05;;;;;;;1.42;0.20;;;13.50;99.90;;;;;;7407718;19;19947;-74
2023/05/30 08:08:34;;;;;;;0.10;0.10;;;13.50;99.90;;;;;;7407557;19;19950;-74
2023/05/30 08:11:03;;;;;;;0.47;0.10;;;13.60;99.90;;;;;;7406410;19;19925;-74
2023/05/30 08:13:32;;;;;;;0.05;0.00;;;13.50;99.90;;;;;;7406493;19;20191;-74
2023/05/30 08:16:04;;;;;;;0.32;0.10;;;13.60;99.90;;;;;;7406374;19;19939;-74
2023/05/30 08:18:34;;;;;;;0.10;0.10;;;13.60;99.90;;;;;;7407145;19;19923;-74
2023/05/30 08:21:03;;;;;;;0.45;0.00;;;13.30;99.90;;;;;;7406989;19;19970;-74
2023/05/30 08:23:32;;;;;;;0.20;0.10;;;13.40;99.90;;;;;;7406423;19;19982;-74
2023/05/30 08:26:02;;;;;;;0.10;0.00;;;13.50;99.90;;;;;;7407010;19;20414;-74
2023/05/30 08:28:31;;;;;;;0.20;0.10;;;13.60;99.90;;;;;;7407214;19;19929;-74
2023/05/30 08:31:04;;;;;;;1.38;0.10;;;13.60;99.90;;;;;;7407203;19;20062;-74
2023/05/30 08:33:34;;;;;;;0.10;0.10;;;13.70;99.90;;;;;;7405910;19;19918;-73
2023/05/30 08:36:03;;;;;;;0.00;0.00;;;13.80;99.90;;;;;;7406980;19;20313;-73
2023/05/30 08:38:33;;;;;;;0.10;0.00;;;13.80;99.90;;;;;;7407089;19;20258;-74
2023/05/30 08:41:02;;;;;;;0.10;0.10;;;14.10;99.90;;;;;;7406193;19;20380;-74
2023/05/30 08:43:31;;;;;;;0.00;0.00;;;14.00;99.90;;;;;;7405614;19;20328;-74
2023/05/30 08:46:03;;;;;;;0.10;0.10;;;14.00;99.90;;;;;;7405667;19;19935;-73
2023/05/30 08:48:34;;;;;;;0.10;0.10;;;14.10;99.90;;;;;;7406413;19;19919;-74
2023/05/30 08:51:04;;;;;;;0.57;0.03;;;14.10;99.90;;;;;;7401544;19;19921;-73
2023/05/30 08:53:38;;;;;;;0.10;0.10;;;14.10;99.90;;;;;;7406781;19;19918;-74
2023/05/30 08:56:12;;;;;;;0.08;0.08;;;14.10;99.90;;;;;;7406097;19;19918;-73
2023/05/30 08:58:46;;;;;;;0.25;0.10;;;14.10;99.90;;;;;;7405088;19;19922;-74
2023/05/30 09:01:18;;;;;;;0.00;0.00;;;14.00;99.90;;;;;;7406675;19;19939;-74
2023/05/30 09:03:47;;;;;;;;;;;14.10;99.90;;;;;;7407816;19;20310;-74
2023/05/30 09:06:16;;;;;;;;;;;14.10;99.90;;;;;;7408032;19;20396;-74
2023/05/30 09:08:47;;;;;;;0.20;0.10;;;14.10;99.90;;;;;;7405156;19;20313;-74
2023/05/30 09:11:16;;;;;;;0.08;0.00;;;14.10;99.90;;;;;;7405397;19;19917;-74
2023/05/30 09:13:45;;;;;;;0.10;0.10;;;14.10;99.90;;;;;;7404722;19;19926;-74
2023/05/30 09:16:18;;;;;;;0.08;0.00;;;14.20;99.90;;;;;;7405694;19;19985;-74
2023/05/30 09:18:47;;;;;;;0.10;0.00;;;14.10;99.90;;;;;;7405199;19;19947;-74
2023/05/30 09:21:17;;;;;;;0.30;0.10;;;14.20;99.90;;;;;;7404775;19;19922;-74
2023/05/30 09:23:46;;;;;;;0.43;0.10;;;16.10;99.90;;;;;;7404972;19;19930;-74
2023/05/30 09:26:18;;;;;;;0.10;0.10;;;14.10;99.90;;;;;;7404572;19;19919;-74
2023/05/30 09:28:48;;;;;;;0.75;0.15;;;14.00;99.90;;;;;;7404911;19;19939;-73
2023/05/30 09:31:22;;;;;;;1.90;0.57;;;13.90;99.90;;;;;;7405729;19;20334;-74
2023/05/30 09:33:53;;;;;;;1.20;0.30;;;14.00;99.90;;;;;;7404864;19;19926;-73
2023/05/30 09:36:23;;;;;;;0.10;0.10;;;14.00;99.90;;;;;;7404366;19;19918;-74
2023/05/30 09:38:56;;;;;;;0.00;0.00;;;14.10;99.90;;;;;;7405075;19;19915;-74
2023/05/30 09:41:26;;;;;;;0.00;0.00;;;14.10;99.90;;;;;;7404754;19;19989;-74
2023/05/30 09:43:55;;;;;;;0.88;0.10;;;14.40;99.90;;;;;;7404900;19;20370;-74
2023/05/30 09:46:29;;;;;;;0.20;0.10;;;14.70;99.90;;;;;;7404469;19;19914;-73
2023/05/30 09:48:59;;;;;;;0.00;0.00;;;14.80;99.90;;;;;;7404466;19;20261;-73
2023/05/30 09:51:29;;;;;;;0.10;0.00;;;14.90;99.90;;;;;;7405050;19;19950;-73
2023/05/30 09:54:01;;;;;;;0.45;0.10;;;14.70;99.90;;;;;;7405359;19;19946;-74
2023/05/30 09:56:36;;;;;;;0.65;0.10;;;14.60;99.90;;;;;;7405577;19;19919;-73
2023/05/30 09:59:08;;;;;;;0.17;0.10;;;14.70;99.90;;;;;;7403895;19;19926;-73
2023/05/30 10:01:41;;;;;;;0.30;0.10;;;14.70;99.90;;;;;;7402339;19;19929;-73
2023/05/30 10:04:14;;;;;;;0.10;0.10;;;14.60;99.90;;;;;;7402005;19;20449;-73
2023/05/30 10:06:45;;;;;;;0.15;0.10;;;14.80;99.90;;;;;;7404833;19;20286;-74
2023/05/30 10:09:15;;;;;;;0.40;0.10;;;14.70;99.90;;;;;;7388299;19;20394;-74
2023/05/30 10:11:46;;;;;;;0.10;0.10;;;14.70;99.90;;;;;;7401621;19;19922;-73
2023/05/30 10:14:15;;;;;;;0.10;0.10;;;14.80;99.90;;;;;;7399179;19;20344;-74
2023/05/30 10:16:51;;;;;;;0.10;0.10;;;14.80;99.90;;;;;;7396114;19;19982;-74
2023/05/30 10:19:25;;;;;;;0.10;0.10;;;15.00;99.90;;;;;;7400740;19;19914;-74
2023/05/30 10:21:57;;;;;;;0.10;0.10;;;15.00;99.90;;;;;;7397397;19;19995;-74
2023/05/30 10:24:26;;;;;;;;;;;15.20;99.90;;;;;;7401666;19;19930;-74
2023/05/30 10:26:58;;;;;;;0.80;0.10;;;15.20;99.90;;;;;;7400908;19;19947;-74
2023/05/30 10:29:31;;;;;;;0.35;0.15;;;15.30;99.90;;;;;;7399309;19;20334;-72
2023/05/30 10:32:03;;;;;;;0.22;0.15;;;15.20;99.90;;;;;;7399483;19;20345;-73
2023/05/30 10:34:40;;;;;;;0.10;0.10;;;14.80;99.90;;;;;;7399015;19;19922;-73
2023/05/30 10:37:10;;;;;;;0.10;0.10;;;15.10;99.90;;;;;;7395944;19;19922;-75
2023/05/30 10:39:58;;;;;;;0.80;0.40;;;15.00;99.90;;;;;;7395153;19;20278;-74
2023/05/30 10:42:32;;;;;;;0.10;0.10;;;15.10;99.90;;;;;;7397321;19;19922;-74
2023/05/30 10:45:12;;;;;;;0.95;0.17;;;15.00;99.90;;;;;;7398407;19;19926;-74
2023/05/30 10:47:50;;;;;;;0.22;0.10;;;15.10;99.90;;;;;;7396354;19;20583;-74
2023/05/30 10:50:29;;;;;;;0.25;0.10;;;14.80;99.90;;;;;;7398516;19;19915;-74
2023/05/30 10:52:58;;;;;;;1.15;0.30;;;14.90;99.90;;;;;;7398101;19;19930;-75
2023/05/30 10:55:29;;;;;;;0.35;0.13;;;14.70;99.90;;;;;;7397341;19;19918;-74
2023/05/30 10:57:58;;;;;;;0.25;0.10;;;14.70;99.90;;;;;;7395569;19;19918;-75
2023/05/30 11:00:31;;;;;;;0.10;0.10;;;14.80;99.90;;;;;;7398850;19;19923;-73
2023/05/30 11:03:03;;;;;;;0.10;0.10;;;14.60;99.90;;;;;;7395647;19;19918;-74
2023/05/30 11:05:35;;;;;;;0.35;0.10;;;14.70;99.90;;;;;;7395278;19;19950;-73
2023/05/30 11:08:04;;;;;;;;;;;14.80;99.90;;;;;;7401162;19;20262;-73
2023/05/30 11:10:35;;;;;;;;;;;14.80;99.90;;;;;;7402011;19;19935;-73
2023/05/30 11:13:11;;;;;;;0.20;0.10;;;14.90;99.90;;;;;;7396659;19;19932;-73
2023/05/30 11:15:46;;;;;;;0.38;0.10;;;15.10;99.90;;;;;;7398366;19;20345;-70
2023/05/30 11:18:21;;;;;;;0.10;0.10;;;15.20;99.90;;;;;;7392755;19;19939;-73
2023/05/30 11:20:55;;;;;;;0.28;0.13;;;15.20;99.90;;;;;;7393848;19;19935;-74
2023/05/30 11:23:24;;;;;;;0.90;0.50;;;15.30;99.90;;;;;;7395237;19;19922;-75
2023/05/30 11:25:56;;;;;;;0.38;0.10;;;15.10;99.90;;;;;;7397229;19;19922;-72
2023/05/30 11:28:38;;;;;;;0.10;0.10;;;15.20;99.90;;;;;;7398420;19;19996;-73
2023/05/30 11:31:19;;;;;;;0.22;0.20;;;14.90;99.90;;;;;;7399965;19;19952;-72
2023/05/30 11:33:52;;;;;;;0.10;0.10;;;15.20;99.90;;;;;;7398595;19;20288;-74
2023/05/30 11:36:21;;;;;;;0.10;0.10;;;15.20;99.90;;;;;;7395929;19;19919;-74
2023/05/30 11:38:52;;;;;;;0.22;0.10;;;15.10;99.90;;;;;;7399350;19;19926;-74
2023/05/30 11:41:22;;;;;;;0.20;0.20;;;15.10;99.90;;;;;;7401273;19;19926;-73
2023/05/30 11:43:51;;;;;;;0.40;0.10;;;15.00;99.90;;;;;;7396781;19;19926;-73
2023/05/30 11:46:21;;;;;;;0.32;0.32;;;14.80;99.90;;;;;;7398350;19;19918;-74
2023/05/30 11:48:59;;;;;;;0.47;0.28;;;14.70;99.90;;;;;;7399151;19;19930;-73
2023/05/30 11:51:30;;;;;;;0.30;0.20;;;14.60;99.90;;;;;;7396867;19;19970;-73
2023/05/30 11:53:59;;;;;;;0.30;0.20;;;14.50;99.90;;;;;;7396762;19;19939;-73
2023/05/30 11:56:30;;;;;;;1.02;0.20;;;14.60;99.90;;;;;;7399993;19;19960;-73
2023/05/30 11:58:59;;;;;;;0.50;0.30;;;14.40;99.90;;;;;;7399148;19;19966;-73
2023/05/30 12:01:30;;;;;;;0.40;0.25;;;14.70;99.90;;;;;;7398490;19;20296;-73
2023/05/30 12:04:02;;;;;;;0.60;0.20;;;14.80;99.90;;;;;;7396770;19;20256;-73
2023/05/30 12:06:34;;;;;;;0.10;0.10;;;14.80;99.90;;;;;;7398031;19;20408;-73
2023/05/30 12:09:03;;;;;;;0.20;0.10;;;15.10;99.90;;;;;;7397635;19;20293;-73
2023/05/30 12:11:32;;;;;;;0.30;0.20;;;15.30;99.90;;;;;;7399108;19;19922;-73
2023/05/30 12:14:01;;;;;;;0.10;0.10;;;15.50;99.90;;;;;;7399580;19;20348;-73
2023/05/30 12:16:31;;;;;;;0.10;0.10;;;15.70;99.90;;;;;;7400424;19;19982;-73
2023/05/30 12:19:03;;;;;;;0.20;0.20;;;15.50;99.90;;;;;;7390744;19;19939;-73
2023/05/30 12:21:36;;;;;;;0.10;0.10;;;15.80;99.90;;;;;;7392071;19;20374;-73
2023/05/30 12:24:11;;;;;;;0.28;0.17;;;15.90;99.90;;;;;;7394107;19;19914;-73
2023/05/30 12:26:48;;;;;;;0.20;0.20;;;16.00;99.90;;;;;;7401676;19;20358;-73
2023/05/30 12:29:17;;;;;;;0.47;0.20;;;16.00;99.90;;;;;;7403622;19;19978;-73
2023/05/30 12:31:49;;;;;;;0.20;0.20;;;16.00;99.90;;;;;;7404461;19;20369;-73
2023/05/30 12:34:21;;;;;;;0.10;0.10;;;16.20;99.90;;;;;;7403341;19;20341;-73
2023/05/30 12:36:55;;;;;;;0.47;0.17;;;15.90;99.90;;;;;;7403227;19;19926;-73
2023/05/30 12:39:24;;;;;;;0.20;0.20;;;15.90;99.90;;;;;;7405391;19;19923;-74
2023/05/30 12:41:57;;;;;;;0.20;0.20;;;15.80;99.90;;;;;;7404958;19;19993;-73
2023/05/30 12:44:26;;;;;;;1.05;0.28;;;15.80;99.90;;;;;;7403728;19;19990;-72
2023/05/30 12:47:03;;;;;;;0.10;0.00;;;15.90;99.90;;;;;;7397572;19;19974;-73
2023/05/30 12:49:35;;;;;;;;;;;15.80;99.90;;;;;;7405386;19;19914;-73
2023/05/30 12:52:05;;;;;;;0.03;0.03;;;15.80;99.90;;;;;;7404483;19;19943;-73
2023/05/30 12:54:35;;;;;;;0.17;0.17;;;15.80;99.90;;;;;;7401832;19;19934;-73
2023/05/30 12:57:04;;;;;;;0.10;0.10;;;15.90;99.90;;;;;;7404719;19;20249;-73
2023/05/30 12:59:33;;;;;;;0.20;0.10;;;16.10;99.90;;;;;;7399020;19;19925;-73
2023/05/30 13:02:02;;;;;;;0.20;0.10;;;16.10;99.90;;;;;;7402250;19;19918;-73
2023/05/30 13:04:31;;;;;;;0.20;0.10;;;16.30;99.90;;;;;;7398564;19;19926;-73
2023/05/30 13:07:03;;;;;;;0.25;0.08;;;16.60;99.90;;;;;;7396426;19;20349;-73